createdAt,value
2023-02-25T09:52:03.994Z,945.75
2023-02-25T09:53:03.758Z,946.19
2023-02-25T09:54:03.901Z,946.11
2023-02-25T09:55:03.758Z,945.85
2023-02-25T09:56:03.837Z,945.77
2023-02-25T09:57:03.881Z,945.79
2023-02-25T09:58:03.818Z,945.81
2023-02-25T09:59:03.751Z,945.33
2023-02-25T10:00:03.768Z,945.04
2023-02-25T10:01:03.844Z,945.10
2023-02-25T10:02:04.004Z,945.20
2023-02-25T10:03:11.210Z,945.37
2023-02-25T10:04:06.696Z,945.31
2023-02-25T10:05:04.111Z,945.17
2023-02-25T10:06:03.828Z,945.20
2023-02-25T10:07:10.102Z,944.89
2023-02-25T10:08:06.873Z,945.04
2023-02-25T10:09:03.979Z,945.30
2023-02-25T10:10:06.918Z,944.94
2023-02-25T10:11:06.806Z,944.40
2023-02-25T10:12:04.223Z,944.59
2023-02-25T10:13:16.611Z,944.91
2023-02-25T10:14:04.368Z,944.77
2023-02-25T10:15:03.900Z,944.83
2023-02-25T10:16:04.714Z,944.42
2023-02-25T10:17:03.923Z,944.64
2023-02-25T10:18:03.858Z,944.97
2023-02-25T10:19:03.959Z,945.05
2023-02-25T10:20:03.784Z,944.59
2023-02-25T10:21:05.161Z,944.53
2023-02-25T10:22:06.597Z,944.82
2023-02-25T10:23:06.251Z,944.50
2023-02-25T10:24:03.969Z,944.40
2023-02-25T10:25:10.587Z,944.76
2023-02-25T10:26:05.173Z,944.69
2023-02-25T10:27:04.164Z,944.65
2023-02-25T10:28:06.284Z,944.70
2023-02-25T10:29:06.804Z,944.76
2023-02-25T10:30:04.189Z,944.74
2023-02-25T10:31:04.246Z,944.65
2023-02-25T10:32:04.933Z,944.45
2023-02-25T10:33:06.777Z,944.40
2023-02-25T10:34:04.117Z,944.71
2023-02-25T10:35:04.227Z,944.53
2023-02-25T10:36:04.125Z,944.33
2023-02-25T10:37:04.083Z,943.95
2023-02-25T10:38:05.714Z,943.93
2023-02-25T10:39:05.866Z,943.86
2023-02-25T10:40:07.229Z,943.90
2023-02-25T10:41:04.154Z,944.13
2023-02-25T10:42:07.180Z,943.87
2023-02-25T10:43:04.144Z,944.13
2023-02-25T10:44:04.087Z,943.75
2023-02-25T10:45:07.271Z,944.09
2023-02-25T10:46:04.281Z,944.58
2023-02-25T10:47:08.475Z,944.53
2023-02-25T10:48:04.955Z,944.28
2023-02-25T10:49:04.272Z,944.21
2023-02-25T10:50:07.183Z,943.96
2023-02-25T10:51:04.372Z,944.58
2023-02-25T10:52:06.812Z,944.24
2023-02-25T10:53:04.070Z,944.02
2023-02-25T10:54:04.272Z,943.59
2023-02-25T10:55:04.256Z,943.81
2023-02-25T11:05:46.624Z,943.06
2023-02-25T11:06:46.805Z,942.94
2023-02-25T11:07:46.557Z,943.22
2023-02-25T11:08:46.514Z,942.82
2023-02-25T11:09:46.638Z,943.00
2023-02-25T11:10:48.267Z,943.10
2023-02-25T11:21:57.009Z,942.43
2023-02-25T11:22:56.953Z,942.26
2023-02-25T11:23:57.010Z,942.70
2023-02-25T11:24:57.011Z,942.28
2023-02-25T11:25:56.916Z,941.91
2023-02-25T11:26:58.030Z,941.89
2023-02-25T11:27:56.916Z,941.23
2023-02-25T11:28:57.017Z,941.21
2023-02-25T11:30:01.968Z,941.49
2023-02-25T11:30:57.275Z,941.98
2023-02-25T11:32:00.222Z,941.96
2023-02-25T11:32:57.169Z,941.95
2023-02-25T11:34:03.267Z,942.08
2023-02-25T11:34:57.256Z,941.99
2023-02-25T11:35:57.072Z,942.55
2023-02-25T11:37:02.201Z,942.47
2023-02-25T11:37:57.017Z,942.78
2023-02-25T11:38:57.148Z,942.64
2023-02-25T11:39:57.017Z,942.48
2023-02-25T11:40:57.039Z,942.65
2023-02-25T11:41:57.023Z,942.84
2023-02-25T11:42:57.030Z,943.03
2023-02-25T11:43:57.222Z,942.98
2023-02-25T11:44:57.184Z,943.21
2023-02-25T11:45:57.096Z,943.13
2023-02-25T11:46:57.203Z,943.36
2023-02-25T11:47:57.149Z,943.49
2023-02-25T11:48:57.183Z,943.34
2023-02-25T11:49:59.720Z,943.45
2023-02-25T11:50:57.145Z,943.47
2023-02-25T12:00:17.002Z,944.37
2023-02-25T12:01:16.912Z,944.25
2023-02-25T12:02:17.002Z,944.10
2023-02-25T12:03:19.547Z,943.89
2023-02-25T12:04:17.013Z,943.77
2023-02-25T12:05:20.130Z,942.82
2023-02-25T12:06:19.542Z,942.41
2023-02-25T12:07:20.547Z,941.84
2023-02-25T12:08:19.308Z,941.74
2023-02-25T12:09:16.944Z,941.17
2023-02-25T12:10:19.888Z,940.67
2023-02-25T12:11:16.902Z,940.91
2023-02-25T12:12:17.157Z,940.52
2023-02-25T12:13:30.890Z,940.24
2023-02-25T12:14:17.061Z,940.19
2023-02-25T12:15:17.288Z,940.21
2023-02-25T12:16:17.126Z,940.00
2023-02-25T12:17:17.123Z,939.63
2023-02-25T12:18:17.139Z,939.92
2023-02-25T12:19:17.267Z,940.40
2023-02-25T12:20:17.076Z,940.47
2023-02-25T12:21:17.079Z,940.37
2023-02-25T12:22:17.197Z,940.46
2023-02-25T12:23:17.097Z,940.76
2023-02-25T12:24:17.035Z,940.37
2023-02-25T12:25:17.041Z,940.24
2023-02-25T12:26:19.447Z,939.71
2023-02-25T12:27:17.170Z,939.42
2023-02-25T12:28:22.632Z,939.39
2023-02-25T12:29:17.128Z,938.84
2023-02-25T12:30:17.479Z,938.05
2023-02-25T12:31:17.221Z,938.62
2023-02-25T12:32:18.903Z,938.80
2023-02-25T12:33:17.276Z,938.40
2023-02-25T12:34:21.708Z,937.95
2023-02-25T12:35:17.244Z,938.34
2023-02-25T12:36:17.218Z,938.04
2023-02-25T12:37:17.431Z,937.59
2023-02-25T12:38:17.203Z,937.61
2023-02-25T12:39:17.235Z,937.06
2023-02-25T12:40:17.265Z,937.46
2023-02-25T12:41:17.354Z,937.72
2023-02-25T12:42:17.201Z,938.12
2023-02-25T12:43:17.265Z,938.03
2023-02-25T12:44:17.245Z,938.41
2023-02-25T12:45:17.257Z,938.99
2023-02-25T12:46:17.260Z,938.99
2023-02-25T12:47:17.249Z,939.00
2023-02-25T12:48:17.172Z,939.90
2023-02-25T12:49:22.985Z,940.30
2023-02-25T12:50:17.272Z,940.72
2023-02-25T12:51:17.425Z,940.93
2023-02-25T12:52:17.631Z,940.78
2023-02-25T12:53:17.240Z,941.05
2023-02-25T12:54:17.243Z,940.95
2023-02-25T12:55:17.525Z,940.44
2023-02-25T12:56:17.380Z,940.55
2023-02-25T12:57:17.320Z,940.60
2023-02-25T12:58:17.248Z,940.22
2023-02-25T12:59:17.176Z,940.65
2023-02-25T13:00:17.418Z,940.49
2023-02-25T13:01:17.270Z,941.06
2023-02-25T13:02:17.270Z,940.56
2023-02-25T13:03:17.194Z,940.60
2023-02-25T13:04:17.243Z,940.60
2023-02-25T13:05:17.304Z,940.69
2023-02-25T13:06:17.276Z,940.84
2023-02-25T13:07:17.212Z,941.19
2023-02-25T13:08:17.364Z,941.57
2023-02-25T13:09:17.309Z,941.62
2023-02-25T13:10:17.407Z,942.05
2023-02-25T13:11:17.309Z,942.74
2023-02-25T13:12:17.261Z,943.33
2023-02-25T13:13:17.296Z,943.82
2023-02-25T13:14:17.248Z,943.94
2023-02-25T13:15:17.291Z,944.08
2023-02-25T13:16:17.356Z,944.37
2023-02-25T13:17:17.300Z,944.51
2023-02-25T13:18:17.232Z,944.53
2023-02-25T13:19:17.359Z,944.77
2023-02-25T13:20:17.561Z,944.92
2023-02-25T13:21:17.262Z,944.61
2023-02-25T13:22:17.293Z,944.56
2023-02-25T13:23:17.324Z,944.60
2023-02-25T13:24:17.300Z,944.76
2023-02-25T13:25:17.796Z,945.12
2023-02-25T13:26:17.260Z,944.88
2023-02-25T13:27:17.302Z,945.19
2023-02-25T13:28:17.308Z,945.32
2023-02-25T13:29:17.337Z,945.34
2023-02-25T13:30:17.706Z,945.44
2023-02-25T13:31:17.397Z,945.46
2023-02-25T13:32:17.403Z,945.31
2023-02-25T13:33:20.174Z,945.68
2023-02-25T13:34:17.505Z,945.72
2023-02-25T13:35:17.512Z,945.96
2023-02-25T13:36:17.437Z,945.98
2023-02-25T13:37:17.433Z,946.10
2023-02-25T13:38:17.282Z,946.21
2023-02-25T13:39:17.312Z,946.18
2023-02-25T13:40:17.748Z,946.31
2023-02-25T13:41:17.287Z,946.37
2023-02-25T13:42:17.391Z,946.24
2023-02-25T13:43:17.285Z,946.21
2023-02-25T13:44:17.366Z,946.31
2023-02-25T13:45:17.422Z,946.34
2023-02-25T13:46:17.379Z,946.11
2023-02-25T13:47:17.353Z,946.17
2023-02-25T13:48:17.331Z,946.19
2023-02-25T13:49:17.388Z,946.36
2023-02-25T13:50:17.727Z,946.33
2023-02-25T14:12:35.875Z,947.82
2023-02-25T14:13:35.805Z,947.84
2023-02-25T14:14:35.842Z,947.85
2023-02-25T14:15:35.908Z,947.82
2023-02-25T14:16:35.801Z,947.76
2023-02-25T14:17:35.783Z,947.79
2023-02-25T14:18:35.917Z,947.71
2023-02-25T14:19:35.813Z,947.63
2023-02-25T14:20:35.950Z,947.58
2023-02-25T14:21:35.870Z,947.59
2023-02-25T14:22:36.171Z,947.68
2023-02-25T14:23:35.870Z,947.67
2023-02-25T14:24:36.207Z,947.33
2023-02-25T14:25:35.897Z,947.44
2023-02-25T14:26:36.013Z,947.61
2023-02-25T14:27:35.860Z,947.43
2023-02-25T14:28:35.848Z,947.25
